Latest Coastal Weather Observations for Maria Island

IDT60701

Issued at 6:51 pm EDT Wednesday 1 April 2015 (issued every 10 minutes, with the page automatically refreshed every 10 minutes)

About coastal observations | Map of coastal stations | Coastal observations for TAS | Marine services | Other Formats
Station Details ID: 092124 Name: MARIA ISLAND (POINT LESUEUR) Lat: -42.66 Lon: 148.02 Height: 28.0 m
Data from the previous 72 hours. | See also: Recent months at Maria Island
Date/Time
EDT
Temp

°C
Wind Pressure Rain
since 9am
mm
Weather Cloud Vis
km
Sea
Height
m
Swell
Dir
 
Speed
knots
Gust
knots
hPa Trend Height
m
Period
s
Dir
01/06:30pm 19.5 NNW 15 18 1006.7 - 0.0 - - - - - - -
01/06:00pm 19.2 NNW 7 12 1007.4 - 0.0 - - - - - - -
01/05:30pm 18.9 N 9 13 1007.4 - 0.0 - - - - - - -
01/05:00pm 19.2 NNE 12 15 1007.7 - 0.0 - - - - - - -
01/04:30pm 20.3 NNE 14 17 1008.0 - 0.0 - - - - - - -
01/04:00pm 20.7 NNE 14 17 1008.4 - 0.0 - - - - - - -
01/03:30pm 20.9 NNE 15 19 1008.8 - 0.0 - - - - - - -
01/03:00pm 20.9 NNE 21 25 1008.9 - 0.0 - - - - - - -
01/02:30pm 20.3 N 20 23 1009.3 - 0.0 - - - - - - -
01/02:00pm 19.8 N 19 22 1010.0 - 0.0 - - - - - - -
01/01:30pm 19.3 N 19 22 1010.7 - 0.0 - - - - - - -
01/01:00pm 19.4 N 19 23 1011.6 - 0.0 - - - - - - -
01/12:30pm 18.9 N 13 19 1012.3 - 0.0 - - - - - - -
01/12:00pm 18.2 N 17 19 1012.6 - 0.0 - - - - - - -
01/11:30am 18.3 N 20 23 1012.9 - 0.0 - - - - - - -
01/11:00am 17.8 N 18 21 1013.3 - 0.0 - - - - - - -
01/10:30am 17.6 N 22 26 1013.1 - 0.0 - - - - - - -
01/10:00am 17.3 N 21 26 1013.5 - 0.0 - - - - - - -
01/09:30am 17.1 N 22 26 1013.9 - 0.0 - - - - - - -
01/09:00am 16.7 N 21 23 1014.1 - 0.0 - - - - - - -
01/08:30am 16.5 N 22 26 1014.2 - 0.0 - - - - - - -
01/08:00am 16.3 N 20 24 1014.5 - 0.0 - - - - - - -
01/07:30am 15.8 N 20 23 1015.0 - 0.0 - - - - - - -
01/07:00am 15.5 N 19 21 1015.4 - 0.0 - - - - - - -
01/06:30am 15.4 N 19 21 1015.6 - 0.0 - - - - - - -
01/06:00am 15.3 N 17 20 1016.0 - 0.0 - - - - - - -
01/05:30am 15.0 N 15 18 1016.4 - 0.0 - - - - - - -
01/05:00am 14.7 NNW 9 10 1016.8 - 0.0 - - - - - - -
01/04:30am 14.5 NNW 8 9 1017.1 - 0.0 - - - - - - -
01/04:00am 14.5 NNW 8 10 1017.4 - 0.0 - - - - - - -
01/03:30am 14.5 N 9 11 1017.7 - 0.0 - - - - - - -
01/03:00am 14.3 NNW 6 9 1018.5 - 0.0 - - - - - - -
01/02:30am 13.9 NNW 6 8 1019.0 - 0.0 - - - - - - -
01/02:00am 14.1 WNW 7 8 1019.3 - 0.0 - - - - - - -
01/01:30am 14.2 W 9 11 1019.5 - 0.0 - - - - - - -
01/01:00am 14.4 W 9 10 1019.8 - 0.0 - - - - - - -
01/12:30am 14.3 W 5 7 1020.0 - 0.0 - - - - - - -
01/12:00am 15.3 WSW 4 5 1020.3 - 0.0 - - - - - - -
 
Date/Time
EDT
Temp

°C
Wind Pressure Rain
since 9am
mm
Weather Cloud Vis
km
Sea
Height
m
Swell
Dir
 
Speed
knots
Gust
knots
hPa Trend Height
m
Period
s
Dir
31/11:30pm 15.8 WSW 6 8 1020.7 - 0.0 - - - - - - -
31/11:00pm 15.1 WSW 7 9 1020.9 - 0.0 - - - - - - -
31/10:30pm 15.2 SW 3 5 1020.7 - 0.0 - - - - - - -
31/10:00pm 15.4 SSW 3 5 1020.8 - 0.0 - - - - - - -
31/09:30pm 15.6 WSW 2 3 1020.5 - 0.0 - - - - - - -
31/09:00pm 15.8 S 2 3 1020.6 - 0.0 - - - - - - -
31/08:30pm 16.0 ENE 3 4 1020.4 - 0.0 - - - - - - -
31/08:00pm 15.4 ENE 4 4 1020.2 - 0.0 - - - - - - -
31/07:30pm 16.6 SSE 1 2 1020.0 - 0.0 - - - - - - -
31/07:00pm 17.1 CALM 0 1 1019.7 - 0.0 - - - - - - -
31/06:30pm 17.6 NNE 3 3 1019.6 - 0.0 - - - - - - -
31/06:00pm 18.3 N 5 6 1019.4 - 0.0 - - - - - - -
31/05:30pm 17.8 N 11 13 1019.5 - 0.0 - - - - - - -
31/05:00pm 18.2 N 12 14 1019.5 - 0.0 - - - - - - -
31/04:30pm 18.8 N 10 11 1019.7 - 0.0 - - - - - - -
31/04:00pm 18.8 N 10 11 1019.8 - 0.0 - - - - - - -
31/03:30pm 19.1 N 9 10 1020.1 - 0.0 - - - - - - -
31/03:00pm 18.7 N 9 11 1020.3 - 0.0 - - - - - - -
31/02:30pm 18.7 N 10 11 1020.8 - 0.0 - - - - - - -
31/02:00pm 18.5 N 11 12 1021.0 - 0.0 - - - - - - -
31/01:30pm 19.0 N 9 11 1021.5 - 0.0 - - - - - - -
31/01:00pm 18.3 N 8 9 1021.8 - 0.0 - - - - - - -
31/12:30pm 17.7 N 9 11 1022.1 - 0.0 - - - - - - -
31/12:00pm 17.4 NNW 7 8 1022.5 - 0.0 - - - - - - -
31/11:30am 17.0 NNW 9 11 1022.9 - 0.0 - - - - - - -
31/11:00am 16.3 N 7 9 1023.5 - 0.0 - - - - - - -
31/10:30am 16.1 NNW 10 11 1023.6 - 0.0 - - - - - - -
31/10:00am 15.9 N 9 10 1023.6 - 0.0 - - - - - - -
31/09:30am 14.5 N 9 10 1023.8 - 0.0 - - - - - - -
31/09:00am 13.9 N 9 12 1023.7 - 0.0 - - - - - - -
31/08:30am 13.3 N 6 9 1023.8 - 0.0 - - - - - - -
31/08:00am 12.1 NNE 3 4 1023.6 - 0.0 - - - - - - -
31/07:30am 11.8 NW 3 4 1023.4 - 0.0 - - - - - - -
31/07:00am 12.0 NNW 4 5 1023.0 - 0.0 - - - - - - -
31/06:30am 11.6 N 4 5 1022.9 - 0.0 - - - - - - -
31/06:00am 12.1 N 4 5 1022.7 - 0.0 - - - - - - -
31/05:30am 11.9 WNW 3 5 1022.7 - 0.0 - - - - - - -
31/05:00am 12.2 N 3 3 1022.3 - 0.0 - - - - - - -
31/04:30am 12.3 N 3 3 1022.4 - 0.0 - - - - - - -
31/04:00am 12.3 N 3 4 1022.5 - 0.0 - - - - - - -
31/03:30am 12.7 N 2 3 1022.7 - 0.0 - - - - - - -
31/03:00am 12.1 W 4 5 1022.8 - 0.0 - - - - - - -
31/02:30am 12.1 NW 2 4 1023.0 - 0.0 - - - - - - -
31/02:00am 12.2 WNW 4 6 1022.9 - 0.0 - - - - - - -
31/01:30am 12.9 W 2 4 1022.8 - 0.0 - - - - - - -
31/01:00am 13.4 N 2 3 1022.8 - 0.0 - - - - - - -
31/12:30am 13.9 NNW 2 4 1022.8 - 0.0 - - - - - - -
31/12:00am 14.0 NW 3 5 1022.8 - 0.0 - - - - - - -
 
Date/Time
EDT
Temp

°C
Wind Pressure Rain
since 9am
mm
Weather Cloud Vis
km
Sea
Height
m
Swell
Dir
 
Speed
knots
Gust
knots
hPa Trend Height
m
Period
s
Dir
30/11:30pm 14.1 ENE 3 4 1023.0 - 0.0 - - - - - - -
30/11:00pm 14.5 SE 3 4 1022.9 - 0.0 - - - - - - -
30/10:30pm 15.0 CALM 0 0 1023.0 - 0.0 - - - - - - -
30/10:00pm 14.9 CALM 0 0 1022.8 - 0.0 - - - - - - -
30/09:30pm 15.1 ENE 1 2 1022.6 - 0.0 - - - - - - -
30/09:00pm 15.1 CALM 0 1 1022.3 - 0.0 - - - - - - -
30/08:30pm 15.3 SSE 2 3 1021.7 - 0.0 - - - - - - -
30/08:00pm 15.4 SSE 8 11 1021.3 - 0.0 - - - - - - -
30/07:30pm 15.8 S 13 15 1020.4 - 0.0 - - - - - - -
30/07:00pm 16.8 S 12 15 1019.9 - 0.0 - - - - - - -
30/06:39pm 17.6 SSW 10 16 1019.5 - 0.0 - - - - - - -
30/06:30pm 18.5 S 4 6 1019.5 - 0.0 - - - - - - -
30/06:00pm 19.3 ESE 3 5 1018.8 - 0.0 - - - - - - -
30/05:30pm 19.8 ESE 5 7 1018.3 - 0.0 - - - - - - -
30/05:00pm 20.1 ESE 7 8 1017.9 - 0.0 - - - - - - -
30/04:30pm 19.9 ESE 5 7 1017.8 - 0.0 - - - - - - -
30/04:00pm 20.3 NE 2 3 1017.8 - 0.0 - - - - - - -
30/03:30pm 20.9 N 8 11 1017.6 - 0.0 - - - - - - -
30/03:00pm 20.2 N 8 10 1017.5 - 0.0 - - - - - - -
30/02:30pm 19.8 NNW 7 10 1017.6 - 0.0 - - - - - - -
30/02:00pm 21.4 W 15 19 1017.5 - 0.0 - - - - - - -
30/01:30pm 21.3 W 16 21 1017.8 - 0.0 - - - - - - -
30/01:00pm 20.7 WNW 11 15 1018.0 - 0.0 - - - - - - -
30/12:30pm 19.3 NNE 2 5 1018.4 - 0.0 - - - - - - -
30/12:00pm 18.8 NNE 4 5 1018.6 - 0.0 - - - - - - -
30/11:30am 17.8 NNE 8 10 1018.7 - 0.0 - - - - - - -
30/11:00am 17.4 NNE 8 10 1018.7 - 0.0 - - - - - - -
30/10:30am 17.2 N 7 8 1018.7 - 0.0 - - - - - - -
30/10:00am 17.1 N 5 7 1018.5 - 0.0 - - - - - - -
30/09:30am 16.5 N 8 9 1018.3 - 0.0 - - - - - - -
30/09:00am 16.0 N 7 9 1018.1 - 0.2 - - - - - - -
30/08:30am 15.4 NW 6 8 1018.0 - 0.2 - - - - - - -
30/08:00am 15.5 NNW 6 8 1017.7 - 0.2 - - - - - - -
30/07:30am 15.4 NW 7 11 1017.3 - 0.2 - - - - - - -
30/07:00am 15.1 NNW 6 8 1017.0 - 0.2 - - - - - - -
30/06:30am 14.7 N 7 9 1016.8 - 0.2 - - - - - - -
30/06:00am 15.0 N 8 10 1016.7 - 0.2 - - - - - - -
30/05:30am 14.0 NNE 5 7 1016.6 - 0.2 - - - - - - -
30/05:00am 14.7 N 9 13 1016.6 - 0.2 - - - - - - -
30/04:30am 14.6 N 10 11 1016.6 - 0.2 - - - - - - -
30/04:00am 14.6 N 10 11 1016.6 - 0.2 - - - - - - -
30/03:30am 14.7 N 9 11 1016.6 - 0.2 - - - - - - -
30/03:00am 14.1 NNW 6 7 1016.8 - 0.2 - - - - - - -
30/02:30am 14.0 NNW 6 7 1017.1 - 0.2 - - - - - - -
30/02:00am 14.1 NNW 6 7 1017.5 - 0.2 - - - - - - -
30/01:30am 14.5 N 8 10 1017.6 - 0.2 - - - - - - -
30/01:00am 14.3 N 8 9 1017.6 - 0.2 - - - - - - -
30/12:30am 14.1 NNW 5 6 1017.7 - 0.2 - - - - - - -
30/12:00am 13.9 N 3 4 1017.9 - 0.2 - - - - - - -
 
Date/Time
EDT
Temp

°C
Wind Pressure Rain
since 9am
mm
Weather Cloud Vis
km
Sea
Height
m
Swell
Dir
 
Speed
knots
Gust
knots
hPa Trend Height
m
Period
s
Dir
29/11:30pm 13.7 CALM 0 1 1018.1 - 0.2 - - - - - - -
29/11:00pm 13.9 N 3 6 1018.3 - 0.2 - - - - - - -
29/10:30pm 14.1 WNW 4 5 1018.3 - 0.2 - - - - - - -
29/10:00pm 13.8 ENE 3 5 1018.5 - 0.2 - - - - - - -
29/09:30pm 13.5 NE 3 5 1018.4 - 0.2 - - - - - - -
29/09:00pm 13.5 ENE 4 5 1018.1 - 0.2 - - - - - - -
29/08:30pm 13.3 ENE 6 8 1017.7 - 0.2 - - - - - - -
29/08:00pm 13.5 E 6 8 1017.3 - 0.2 - - - - - - -
29/07:30pm 13.5 ESE 7 9 1017.1 - 0.2 - - - - - - -
29/07:00pm 13.4 ESE 8 10 1016.7 - 0.2 - - - - - - -

Other Formats:

Comma delimited format used in spreadsheet applications
http://www.bom.gov.au/fwo/IDT60701/IDT60701.95988.axf

JavaScript Object Notation format (JSON) in row-major order
http://www.bom.gov.au/fwo/IDT60701/IDT60701.95988.json